Time;durP1;ratioP1;P1;durP2;ratioP2;P2;SDS_P1;SDS_P2;PMS_P1;PMS_P2;Temp;Humidity;BMP_temperature;BMP_pressure;BME280_temperature;BME280_humidity;BME280_pressure;Samples;Min_cycle;Max_cycle;Signal;HPM_P1;HPM_P2
2022/12/23 00:01:00;;;;;;;0.20;0.20;;;6.30;99.90;;;;;;5006398;28;20961;-76
2022/12/23 00:03:26;;;;;;;0.20;0.20;;;6.30;99.90;;;;;;5011946;28;20566;-76
2022/12/23 00:05:52;;;;;;;0.20;0.20;;;6.30;99.90;;;;;;5010501;28;20922;-76
2022/12/23 00:08:18;;;;;;;0.20;0.20;;;6.30;99.90;;;;;;5009537;28;20470;-76
2022/12/23 00:10:44;;;;;;;0.20;0.20;;;6.30;99.90;;;;;;5009197;28;20260;-76
2022/12/23 00:16:06;;;;;;;0.20;0.20;;;6.30;99.90;;;;;;5007667;28;20235;-76
2022/12/23 00:18:32;;;;;;;0.23;0.23;;;6.30;99.90;;;;;;5010259;28;20447;-76
2022/12/23 00:21:04;;;;;;;0.20;0.20;;;6.20;99.90;;;;;;5009414;28;20443;-76
2022/12/23 00:23:34;;;;;;;0.20;0.20;;;6.20;99.90;;;;;;5009795;28;20444;-76
2022/12/23 00:26:00;;;;;;;0.20;0.20;;;6.20;99.90;;;;;;5009138;28;20447;-76
2022/12/23 00:28:27;;;;;;;0.20;0.20;;;6.20;99.90;;;;;;5008348;28;20938;-76
2022/12/23 00:31:05;;;;;;;0.20;0.20;;;6.20;99.90;;;;;;5009871;28;20447;-76
2022/12/23 00:33:39;;;;;;;0.20;0.20;;;6.30;99.90;;;;;;5005541;28;20455;-76
2022/12/23 00:36:22;;;;;;;0.20;0.20;;;6.30;99.90;;;;;;5008919;28;20973;-76
2022/12/23 00:44:16;;;;;;;0.20;0.20;;;6.30;99.90;;;;;;5006180;28;20526;-76
2022/12/23 00:46:41;;;;;;;0.20;0.20;;;6.20;99.90;;;;;;5009370;28;20553;-76
2022/12/23 00:51:51;;;;;;;0.30;0.30;;;6.20;99.90;;;;;;5011173;28;20263;-76
2022/12/23 00:54:17;;;;;;;0.20;0.20;;;6.20;99.90;;;;;;5009308;28;20514;-76
2022/12/23 00:56:43;;;;;;;0.20;0.20;;;6.20;99.90;;;;;;5008171;28;20255;-76
2022/12/23 00:59:09;;;;;;;0.20;0.20;;;6.20;99.90;;;;;;5008442;28;20565;-76
2022/12/23 01:07:04;;;;;;;0.20;0.20;;;6.20;99.90;;;;;;5007462;28;20509;-76
2022/12/23 01:09:30;;;;;;;0.30;0.30;;;6.30;99.90;;;;;;5006231;28;20793;-76
2022/12/23 01:11:55;;;;;;;0.20;0.20;;;6.30;99.90;;;;;;5005600;28;20832;-76
2022/12/23 01:14:21;;;;;;;0.20;0.20;;;6.30;99.90;;;;;;5009121;28;20192;-76
2022/12/23 01:16:47;;;;;;;0.20;0.20;;;6.30;99.90;;;;;;5007399;28;20211;-76
2022/12/23 01:19:12;;;;;;;0.20;0.20;;;6.30;99.90;;;;;;5008570;28;20180;-76
2022/12/23 01:21:38;;;;;;;0.20;0.20;;;6.30;99.90;;;;;;4997031;28;20309;-76
2022/12/23 01:24:04;;;;;;;0.20;0.20;;;6.30;99.90;;;;;;4989571;28;20622;-76
2022/12/23 01:26:30;;;;;;;0.20;0.20;;;6.20;99.90;;;;;;5006380;28;20653;-76
2022/12/23 01:28:56;;;;;;;0.30;0.30;;;6.20;99.90;;;;;;5010847;28;20455;-76
2022/12/23 01:31:23;;;;;;;0.20;0.20;;;6.20;99.90;;;;;;5007830;28;20203;-76
2022/12/23 01:33:49;;;;;;;0.30;0.30;;;6.20;99.90;;;;;;5008691;28;20955;-76
2022/12/23 01:36:15;;;;;;;0.30;0.30;;;6.20;99.90;;;;;;5011823;28;20446;-76
2022/12/23 01:38:40;;;;;;;0.20;0.20;;;6.20;99.90;;;;;;5012948;28;20203;-76
2022/12/23 01:41:06;;;;;;;0.30;0.30;;;6.20;99.90;;;;;;5012040;28;20199;-76
2022/12/23 01:43:44;;;;;;;0.30;0.30;;;6.20;99.90;;;;;;5011916;28;20188;-76
2022/12/23 01:46:10;;;;;;;0.23;0.23;;;6.10;99.90;;;;;;5011383;28;20196;-76
2022/12/23 01:48:36;;;;;;;0.30;0.30;;;6.10;99.90;;;;;;5014080;28;20493;-76
2022/12/23 01:51:07;;;;;;;0.20;0.20;;;6.00;99.90;;;;;;5008835;28;20235;-76
2022/12/23 01:53:55;;;;;;;0.20;0.20;;;6.10;99.90;;;;;;5001526;28;21161;-76
2022/12/23 01:56:26;;;;;;;0.30;0.30;;;6.10;99.90;;;;;;5004965;28;20541;-76
2022/12/23 01:59:01;;;;;;;0.20;0.20;;;6.10;99.90;;;;;;5009746;28;20530;-76
2022/12/23 02:04:17;;;;;;;0.30;0.30;;;6.10;99.90;;;;;;5013472;28;20510;-76
2022/12/23 02:09:33;;;;;;;0.20;0.20;;;6.10;99.90;;;;;;5011303;28;21011;-76
2022/12/23 02:12:23;;;;;;;0.20;0.20;;;6.10;99.90;;;;;;5027713;28;20529;-76
2022/12/23 02:18:32;;;;;;;0.20;0.20;;;6.10;99.90;;;;;;4993683;28;20431;-76
2022/12/23 02:21:25;;;;;;;0.20;0.20;;;6.10;99.90;;;;;;5010775;28;20509;-76
2022/12/23 02:24:28;;;;;;;0.30;0.30;;;6.20;99.90;;;;;;5005444;28;20439;-76
2022/12/23 02:27:17;;;;;;;0.30;0.30;;;6.10;99.90;;;;;;5010276;28;20479;-76
2022/12/23 02:30:34;;;;;;;0.20;0.20;;;6.20;99.90;;;;;;5011320;28;21014;-76
2022/12/23 02:33:15;;;;;;;0.27;0.27;;;6.10;99.90;;;;;;4976303;28;20481;-76
2022/12/23 02:36:05;;;;;;;0.20;0.20;;;6.10;99.90;;;;;;5012107;28;20577;-76
2022/12/23 02:38:47;;;;;;;0.30;0.30;;;6.10;99.90;;;;;;5010375;28;20839;-76
2022/12/23 02:41:51;;;;;;;0.30;0.30;;;6.00;99.90;;;;;;4995781;28;20447;-76
2022/12/23 02:44:31;;;;;;;0.20;0.20;;;6.00;99.90;;;;;;5011547;28;20469;-76
2022/12/23 02:47:07;;;;;;;0.20;0.20;;;6.10;99.90;;;;;;5010461;28;20478;-76
2022/12/23 02:49:37;;;;;;;0.30;0.30;;;6.10;99.90;;;;;;5013158;28;20427;-76
2022/12/23 02:52:10;;;;;;;0.30;0.30;;;6.10;99.90;;;;;;5009376;28;20617;-76
2022/12/23 02:54:42;;;;;;;0.27;0.27;;;6.00;99.90;;;;;;5010593;28;20509;-76
2022/12/23 02:57:11;;;;;;;0.20;0.20;;;6.00;99.90;;;;;;5008961;28;20535;-76
2022/12/23 02:59:44;;;;;;;0.20;0.20;;;6.00;99.90;;;;;;5005931;28;20459;-76
2022/12/23 03:02:10;;;;;;;0.30;0.30;;;6.00;99.90;;;;;;5011360;28;20455;-76
2022/12/23 03:04:36;;;;;;;0.20;0.20;;;6.00;99.90;;;;;;5012704;28;20434;-76
2022/12/23 03:07:02;;;;;;;0.30;0.30;;;6.00;99.90;;;;;;5012184;28;20218;-76
2022/12/23 03:09:50;;;;;;;0.20;0.20;;;6.10;99.90;;;;;;5011151;28;20862;-76
2022/12/23 03:12:32;;;;;;;0.20;0.20;;;6.10;99.90;;;;;;5000359;28;20940;-76
2022/12/23 03:15:21;;;;;;;0.20;0.20;;;6.10;99.90;;;;;;5006964;28;20890;-76
2022/12/23 03:17:55;;;;;;;0.30;0.30;;;6.10;99.90;;;;;;5003971;28;20817;-76
2022/12/23 03:20:29;;;;;;;0.20;0.20;;;6.10;99.90;;;;;;5008752;28;20431;-76
2022/12/23 03:23:00;;;;;;;0.20;0.20;;;6.10;99.90;;;;;;5009051;28;20446;-76
2022/12/23 03:25:29;;;;;;;0.20;0.20;;;6.10;99.90;;;;;;5003680;28;20447;-76
2022/12/23 03:28:09;;;;;;;0.20;0.20;;;6.10;99.90;;;;;;5009923;28;20577;-76
2022/12/23 03:30:39;;;;;;;0.20;0.20;;;6.00;99.90;;;;;;5000744;28;20439;-76
2022/12/23 03:33:15;;;;;;;0.20;0.20;;;6.10;99.90;;;;;;5009730;28;20446;-76
2022/12/23 03:35:54;;;;;;;0.27;0.27;;;6.10;99.90;;;;;;5011205;28;20442;-76
2022/12/23 03:38:21;;;;;;;0.30;0.30;;;6.10;99.90;;;;;;5010934;28;20423;-76
2022/12/23 03:40:52;;;;;;;0.30;0.30;;;6.10;99.90;;;;;;5010948;28;20447;-76
2022/12/23 03:43:24;;;;;;;0.20;0.20;;;6.10;99.90;;;;;;5004296;28;20439;-76
2022/12/23 03:45:56;;;;;;;0.20;0.20;;;6.10;99.90;;;;;;5010680;28;20529;-76
2022/12/23 03:48:26;;;;;;;0.20;0.20;;;6.10;99.90;;;;;;5006657;28;20541;-76
2022/12/23 03:50:57;;;;;;;0.20;0.20;;;6.10;99.90;;;;;;5010497;28;20522;-76
2022/12/23 03:53:49;;;;;;;0.20;0.20;;;6.10;99.90;;;;;;5004375;28;20460;-76
2022/12/23 03:56:21;;;;;;;0.20;0.20;;;6.00;99.90;;;;;;4994518;28;20444;-76
2022/12/23 03:58:50;;;;;;;0.30;0.30;;;6.00;99.90;;;;;;5000137;28;20465;-76
2022/12/23 04:01:20;;;;;;;0.30;0.30;;;6.00;99.90;;;;;;5010419;28;20539;-76
2022/12/23 04:03:59;;;;;;;0.20;0.20;;;6.10;99.90;;;;;;5011052;28;20500;-76
2022/12/23 04:06:30;;;;;;;0.20;0.20;;;6.10;99.90;;;;;;5010219;28;20543;-76
2022/12/23 04:08:56;;;;;;;0.27;0.27;;;6.20;99.90;;;;;;5010277;28;20451;-76
2022/12/23 04:11:22;;;;;;;0.20;0.20;;;6.10;99.90;;;;;;5011462;28;20419;-76
2022/12/23 04:13:48;;;;;;;0.20;0.20;;;6.10;99.90;;;;;;5008077;28;20451;-76
2022/12/23 04:16:14;;;;;;;0.20;0.20;;;6.00;99.90;;;;;;5008906;28;20232;-76
2022/12/23 04:18:39;;;;;;;0.20;0.20;;;6.00;99.90;;;;;;5010312;28;20655;-76
2022/12/23 04:21:05;;;;;;;0.30;0.30;;;6.00;99.90;;;;;;5010837;28;20438;-76
2022/12/23 04:23:30;;;;;;;0.20;0.20;;;6.00;99.90;;;;;;5007631;28;20203;-76
2022/12/23 04:25:56;;;;;;;0.20;0.20;;;6.10;99.90;;;;;;5011282;28;20185;-76
2022/12/23 04:28:21;;;;;;;0.20;0.20;;;6.20;99.90;;;;;;5007580;28;20230;-76
2022/12/23 04:30:47;;;;;;;0.30;0.30;;;6.10;99.90;;;;;;5006170;28;20212;-76
2022/12/23 04:33:12;;;;;;;0.23;0.23;;;6.10;99.90;;;;;;5009414;28;20663;-76
2022/12/23 04:35:38;;;;;;;0.30;0.30;;;6.10;99.90;;;;;;5006796;28;20287;-76
2022/12/23 04:38:04;;;;;;;0.20;0.20;;;6.00;99.90;;;;;;5008826;28;20204;-76
2022/12/23 04:40:29;;;;;;;0.20;0.20;;;6.00;99.90;;;;;;5008301;28;20196;-76
2022/12/23 04:42:55;;;;;;;0.20;0.20;;;6.00;99.90;;;;;;5007026;28;20196;-76
2022/12/23 04:45:20;;;;;;;0.20;0.20;;;6.00;99.90;;;;;;5008177;28;20743;-76
2022/12/23 04:47:46;;;;;;;0.30;0.30;;;6.00;99.90;;;;;;5009392;28;20242;-76
2022/12/23 04:50:15;;;;;;;0.20;0.20;;;6.00;99.90;;;;;;5009571;28;20221;-76
2022/12/23 04:52:42;;;;;;;0.30;0.30;;;6.00;99.90;;;;;;5007533;28;20207;-76
2022/12/23 04:55:08;;;;;;;0.20;0.20;;;6.00;99.90;;;;;;5007290;28;20459;-76
2022/12/23 04:57:34;;;;;;;0.20;0.20;;;5.90;99.90;;;;;;5008475;28;20447;-76
2022/12/23 04:59:59;;;;;;;0.30;0.30;;;6.00;99.90;;;;;;5007623;28;20451;-76
2022/12/23 05:02:25;;;;;;;0.20;0.20;;;6.00;99.90;;;;;;5006652;28;20188;-76
2022/12/23 05:04:50;;;;;;;0.20;0.20;;;6.00;99.90;;;;;;5010689;28;20593;-76
2022/12/23 05:07:16;;;;;;;0.20;0.20;;;6.00;99.90;;;;;;5009347;28;20310;-76
2022/12/23 05:09:41;;;;;;;0.30;0.30;;;6.00;99.90;;;;;;5009426;28;20207;-77
2022/12/23 05:12:08;;;;;;;0.20;0.20;;;6.00;99.90;;;;;;5009404;28;20214;-76
2022/12/23 05:14:34;;;;;;;0.20;0.20;;;6.00;99.90;;;;;;5005769;28;20562;-76
2022/12/23 05:16:59;;;;;;;0.20;0.20;;;5.90;99.90;;;;;;5009299;28;20223;-76
2022/12/23 05:19:25;;;;;;;0.20;0.20;;;5.90;99.90;;;;;;5009381;28;20184;-76
2022/12/23 05:21:50;;;;;;;0.20;0.20;;;5.90;99.90;;;;;;5000956;28;20250;-76
2022/12/23 05:24:16;;;;;;;0.20;0.20;;;5.90;99.90;;;;;;5006744;28;20545;-76
2022/12/23 05:26:41;;;;;;;0.20;0.20;;;5.90;99.90;;;;;;5008829;28;20230;-76
2022/12/23 05:29:07;;;;;;;0.20;0.20;;;5.80;99.90;;;;;;5006384;28;20242;-76
2022/12/23 05:31:32;;;;;;;0.20;0.20;;;5.80;99.90;;;;;;5009500;28;20198;-77
2022/12/23 05:33:58;;;;;;;0.20;0.20;;;5.80;99.90;;;;;;5009894;28;20555;-76
2022/12/23 05:36:23;;;;;;;0.20;0.20;;;5.80;99.90;;;;;;5009212;28;20200;-76
2022/12/23 05:38:49;;;;;;;0.30;0.30;;;5.80;99.90;;;;;;5010207;28;20662;-76
2022/12/23 05:41:17;;;;;;;0.30;0.30;;;5.80;99.90;;;;;;5008997;28;20273;-76
2022/12/23 05:43:42;;;;;;;0.30;0.30;;;5.70;99.90;;;;;;5005124;28;20275;-76
2022/12/23 05:46:08;;;;;;;0.20;0.20;;;5.80;99.90;;;;;;5004927;28;20458;-76
2022/12/23 05:48:33;;;;;;;0.20;0.20;;;5.80;99.90;;;;;;5008426;28;20219;-76
2022/12/23 05:50:59;;;;;;;0.20;0.20;;;5.80;99.90;;;;;;5007379;28;20777;-76
2022/12/23 05:53:25;;;;;;;0.20;0.20;;;5.80;99.90;;;;;;5005392;28;20188;-77
2022/12/23 05:55:51;;;;;;;0.20;0.20;;;5.90;99.90;;;;;;5022001;28;20192;-76
2022/12/23 05:58:16;;;;;;;0.20;0.20;;;5.90;99.90;;;;;;5006541;28;20443;-76
2022/12/23 06:00:42;;;;;;;0.20;0.20;;;5.90;99.90;;;;;;5006472;28;20184;-77
2022/12/23 06:03:09;;;;;;;0.20;0.20;;;5.90;99.90;;;;;;5002333;28;20211;-76
2022/12/23 06:05:38;;;;;;;0.20;0.20;;;5.80;99.90;;;;;;5006580;28;20454;-76
2022/12/23 06:08:04;;;;;;;0.30;0.30;;;5.90;99.90;;;;;;5006030;28;20490;-76
2022/12/23 06:10:29;;;;;;;0.30;0.30;;;5.90;99.90;;;;;;5008764;28;20435;-76
2022/12/23 06:12:55;;;;;;;0.20;0.20;;;5.90;99.90;;;;;;5000331;28;20451;-76
2022/12/23 06:15:20;;;;;;;0.20;0.20;;;5.90;99.90;;;;;;4999630;28;20235;-76
2022/12/23 06:17:46;;;;;;;0.20;0.20;;;5.90;99.90;;;;;;5012965;28;20196;-76
2022/12/23 06:20:11;;;;;;;0.20;0.20;;;5.90;99.90;;;;;;4999907;28;20188;-76
2022/12/23 06:22:37;;;;;;;0.30;0.30;;;5.90;99.90;;;;;;5009373;28;20653;-76
2022/12/23 06:25:03;;;;;;;0.20;0.20;;;5.90;99.90;;;;;;5002533;28;21119;-76
2022/12/23 06:27:28;;;;;;;0.20;0.20;;;5.90;99.90;;;;;;5008269;28;20328;-76
2022/12/23 06:29:54;;;;;;;0.20;0.20;;;5.90;99.90;;;;;;5011418;28;20683;-77
2022/12/23 06:32:19;;;;;;;0.20;0.20;;;5.80;99.90;;;;;;5005310;28;20203;-77
2022/12/23 06:34:45;;;;;;;0.20;0.20;;;5.90;99.90;;;;;;5007788;28;20195;-77
2022/12/23 06:37:11;;;;;;;0.30;0.30;;;5.90;99.90;;;;;;5006835;28;20705;-76
2022/12/23 06:39:36;;;;;;;0.20;0.20;;;5.80;99.90;;;;;;5011303;28;20451;-76
2022/12/23 06:42:02;;;;;;;0.20;0.20;;;5.90;99.90;;;;;;5006848;28;21072;-77
2022/12/23 06:44:28;;;;;;;0.20;0.20;;;5.80;99.90;;;;;;5009817;28;20274;-76
2022/12/23 06:46:53;;;;;;;0.20;0.20;;;5.90;99.90;;;;;;5008344;28;20249;-76
2022/12/23 06:49:19;;;;;;;0.20;0.20;;;5.80;99.90;;;;;;5006683;28;20568;-76
2022/12/23 06:51:44;;;;;;;0.20;0.20;;;5.80;99.90;;;;;;5009177;28;20188;-77
2022/12/23 06:54:10;;;;;;;0.20;0.20;;;5.80;99.90;;;;;;4993292;28;20249;-76
2022/12/23 06:56:36;;;;;;;0.20;0.20;;;5.90;99.90;;;;;;5007812;28;20192;-75
2022/12/23 06:59:03;;;;;;;0.20;0.20;;;5.80;99.90;;;;;;5000560;28;20454;-75
2022/12/23 07:01:28;;;;;;;0.20;0.20;;;5.80;99.90;;;;;;5003450;28;20303;-76
2022/12/23 07:03:54;;;;;;;0.20;0.20;;;5.80;99.90;;;;;;5008836;28;20537;-77
2022/12/23 07:06:19;;;;;;;0.20;0.20;;;5.80;99.90;;;;;;5011057;28;20238;-75
2022/12/23 07:08:45;;;;;;;0.30;0.30;;;5.80;99.90;;;;;;5008879;28;20291;-75
2022/12/23 07:11:10;;;;;;;0.27;0.27;;;5.80;99.90;;;;;;5004434;28;20558;-75
2022/12/23 07:13:36;;;;;;;0.23;0.23;;;5.70;99.90;;;;;;4999522;28;20679;-75
2022/12/23 07:16:07;;;;;;;0.20;0.20;;;5.80;99.90;;;;;;5007777;28;20289;-76
2022/12/23 07:18:33;;;;;;;0.30;0.30;;;5.80;99.90;;;;;;5011606;28;20223;-75
2022/12/23 07:21:00;;;;;;;0.20;0.20;;;5.80;99.90;;;;;;5010561;28;20447;-75
2022/12/23 07:23:25;;;;;;;0.30;0.30;;;5.70;99.90;;;;;;5004831;28;21028;-76
2022/12/23 07:25:51;;;;;;;0.20;0.20;;;5.70;99.90;;;;;;5004063;28;20516;-75
2022/12/23 07:28:16;;;;;;;0.30;0.30;;;5.70;99.90;;;;;;5004201;28;20228;-75
2022/12/23 07:30:42;;;;;;;0.20;0.20;;;5.70;99.90;;;;;;5006413;28;20191;-75
2022/12/23 07:33:08;;;;;;;0.20;0.20;;;5.70;99.90;;;;;;5005432;28;20224;-75
2022/12/23 07:35:33;;;;;;;0.20;0.20;;;5.70;99.90;;;;;;5007786;28;20663;-75
2022/12/23 07:37:59;;;;;;;0.30;0.30;;;5.70;99.90;;;;;;5009799;28;20232;-76
2022/12/23 07:40:25;;;;;;;0.20;0.20;;;5.70;99.90;;;;;;5006324;28;20215;-76
2022/12/23 07:42:56;;;;;;;0.23;0.23;;;5.70;99.90;;;;;;5002168;28;20197;-76
2022/12/23 07:45:22;;;;;;;0.20;0.20;;;5.70;99.90;;;;;;5005894;28;20538;-76
2022/12/23 07:47:52;;;;;;;0.20;0.20;;;5.70;99.90;;;;;;5005211;28;20606;-74
2022/12/23 07:50:17;;;;;;;0.23;0.23;;;5.70;99.90;;;;;;4995623;28;20427;-75
2022/12/23 07:52:43;;;;;;;0.30;0.30;;;5.80;99.90;;;;;;5009648;28;20457;-75
2022/12/23 07:55:09;;;;;;;0.20;0.20;;;5.70;99.90;;;;;;5004462;28;20196;-75
2022/12/23 07:57:36;;;;;;;0.30;0.30;;;5.70;99.90;;;;;;4998992;28;20220;-76
2022/12/23 08:00:04;;;;;;;0.30;0.30;;;5.70;99.90;;;;;;5003733;28;20181;-75
2022/12/23 08:02:29;;;;;;;0.30;0.30;;;5.60;99.90;;;;;;5009581;28;20471;-76
2022/12/23 08:04:55;;;;;;;0.20;0.20;;;5.60;99.90;;;;;;5007324;28;20447;-76
2022/12/23 08:07:21;;;;;;;0.20;0.20;;;5.50;99.90;;;;;;5011866;28;20291;-76
2022/12/23 08:09:47;;;;;;;0.20;0.20;;;5.50;99.90;;;;;;5004377;28;21043;-76
2022/12/23 08:12:12;;;;;;;0.20;0.20;;;5.60;99.90;;;;;;5001970;28;20204;-76
2022/12/23 08:14:38;;;;;;;0.27;0.27;;;5.60;99.90;;;;;;4995381;28;20225;-76
2022/12/23 08:17:03;;;;;;;0.30;0.30;;;5.50;99.90;;;;;;5006027;28;20272;-75
2022/12/23 08:19:29;;;;;;;0.20;0.20;;;5.50;99.90;;;;;;5002168;28;20243;-75
2022/12/23 08:21:54;;;;;;;0.20;0.20;;;5.50;99.90;;;;;;5002236;28;20223;-75
2022/12/23 08:24:20;;;;;;;0.20;0.20;;;5.50;99.90;;;;;;5007979;28;20192;-75
2022/12/23 08:26:45;;;;;;;0.30;0.30;;;5.60;99.90;;;;;;5003331;28;20216;-75
2022/12/23 08:29:11;;;;;;;0.20;0.20;;;5.60;99.90;;;;;;4996268;28;20200;-75
2022/12/23 08:31:36;;;;;;;0.30;0.30;;;5.50;99.90;;;;;;5002019;28;20191;-75
2022/12/23 08:34:02;;;;;;;0.20;0.20;;;5.50;99.90;;;;;;5007065;28;20196;-75
2022/12/23 08:36:30;;;;;;;0.20;0.20;;;5.60;99.90;;;;;;5009264;28;20279;-74
2022/12/23 08:38:58;;;;;;;0.20;0.20;;;5.50;99.90;;;;;;5009873;28;20181;-76
2022/12/23 08:41:30;;;;;;;0.20;0.20;;;5.50;99.90;;;;;;5007759;28;20447;-76
2022/12/23 08:43:56;;;;;;;0.30;0.30;;;5.60;99.90;;;;;;5005936;28;20470;-75
2022/12/23 08:46:22;;;;;;;0.20;0.20;;;5.60;99.90;;;;;;5008958;28;20439;-75
2022/12/23 08:48:48;;;;;;;0.20;0.20;;;5.60;99.90;;;;;;5008488;28;20606;-76
2022/12/23 08:51:16;;;;;;;0.23;0.23;;;5.60;99.90;;;;;;5008097;28;20530;-76
2022/12/23 08:53:41;;;;;;;0.20;0.20;;;5.60;99.90;;;;;;5010132;28;20177;-76
2022/12/23 08:56:15;;;;;;;0.30;0.30;;;5.70;99.90;;;;;;5009334;28;20431;-75
2022/12/23 08:58:44;;;;;;;0.20;0.20;;;5.70;99.90;;;;;;5004514;28;20664;-75
2022/12/23 09:01:12;;;;;;;0.30;0.30;;;5.70;99.90;;;;;;5007835;28;20443;-75
2022/12/23 09:03:38;;;;;;;0.20;0.20;;;5.70;99.90;;;;;;4999000;28;20460;-75
2022/12/23 09:06:05;;;;;;;0.20;0.20;;;5.70;99.90;;;;;;4999097;28;20447;-75
2022/12/23 09:08:31;;;;;;;0.20;0.20;;;5.70;99.90;;;;;;5005260;28;21214;-75
2022/12/23 09:10:56;;;;;;;0.30;0.30;;;5.80;99.90;;;;;;5009273;28;20506;-76
2022/12/23 09:13:22;;;;;;;0.20;0.20;;;5.70;99.90;;;;;;5010814;28;20668;-76
2022/12/23 09:15:47;;;;;;;0.20;0.20;;;5.80;99.90;;;;;;5008412;28;20913;-75
2022/12/23 09:18:13;;;;;;;0.20;0.20;;;5.70;99.90;;;;;;5007331;28;20192;-75
2022/12/23 09:20:38;;;;;;;0.20;0.20;;;5.60;99.90;;;;;;5007454;28;20251;-76
2022/12/23 09:23:04;;;;;;;0.20;0.20;;;5.60;99.90;;;;;;5008970;28;20719;-76
2022/12/23 09:25:30;;;;;;;0.20;0.20;;;5.60;99.90;;;;;;5009106;28;20198;-75
2022/12/23 09:27:56;;;;;;;0.20;0.20;;;5.80;99.90;;;;;;5007402;28;20577;-76
2022/12/23 09:30:21;;;;;;;0.20;0.20;;;5.90;99.90;;;;;;5007608;28;20539;-75
2022/12/23 09:32:47;;;;;;;0.20;0.20;;;5.90;99.90;;;;;;5008030;28;20648;-76
2022/12/23 09:35:13;;;;;;;0.20;0.20;;;5.90;99.90;;;;;;5002673;28;20191;-76
2022/12/23 09:37:40;;;;;;;0.20;0.20;;;6.00;99.90;;;;;;5005192;28;20614;-76
2022/12/23 09:40:09;;;;;;;0.20;0.20;;;6.00;99.90;;;;;;5004171;28;20195;-75
2022/12/23 09:43:10;;;;;;;0.20;0.20;;;6.00;99.90;;;;;;5006257;28;20458;-75
2022/12/23 09:46:03;;;;;;;0.20;0.20;;;6.00;99.90;;;;;;4992736;28;20463;-76
2022/12/23 09:48:34;;;;;;;0.20;0.20;;;6.10;99.90;;;;;;5004926;28;20489;-76
2022/12/23 09:51:02;;;;;;;0.20;0.20;;;6.20;99.90;;;;;;5011214;28;20969;-75
2022/12/23 09:53:51;;;;;;;0.20;0.20;;;6.30;99.90;;;;;;5006010;28;20469;-76
2022/12/23 09:56:46;;;;;;;0.30;0.30;;;6.10;99.90;;;;;;5004032;28;20829;-76
2022/12/23 09:59:30;;;;;;;0.10;0.10;;;6.10;99.90;;;;;;5012227;28;20453;-75
2022/12/23 10:02:03;;;;;;;0.20;0.20;;;6.50;99.90;;;;;;5011137;28;20812;-76
2022/12/23 10:04:38;;;;;;;0.20;0.20;;;6.80;99.90;;;;;;5002889;28;20455;-75
2022/12/23 10:07:03;;;;;;;0.20;0.20;;;6.80;99.90;;;;;;5009101;28;20489;-75
2022/12/23 10:09:39;;;;;;;0.20;0.20;;;6.70;99.90;;;;;;5011760;28;20466;-76
2022/12/23 10:12:22;;;;;;;0.20;0.20;;;6.90;99.90;;;;;;5008555;28;20192;-75
2022/12/23 10:14:51;;;;;;;0.20;0.20;;;7.00;99.90;;;;;;5005136;28;20483;-76
2022/12/23 10:17:27;;;;;;;0.20;0.20;;;6.90;99.90;;;;;;5006853;28;20489;-76
2022/12/23 10:19:57;;;;;;;0.20;0.20;;;6.90;99.90;;;;;;5008212;28;20623;-75
2022/12/23 10:22:29;;;;;;;0.20;0.20;;;6.80;99.90;;;;;;5007444;28;20443;-76
2022/12/23 10:24:56;;;;;;;0.20;0.20;;;6.90;99.90;;;;;;5010158;28;20454;-76
2022/12/23 10:27:37;;;;;;;0.20;0.20;;;7.00;99.90;;;;;;5006223;28;20471;-76
2022/12/23 10:30:18;;;;;;;0.20;0.20;;;6.90;99.90;;;;;;5010897;28;20492;-76
2022/12/23 10:32:55;;;;;;;0.20;0.20;;;6.90;99.90;;;;;;5002676;28;20482;-76
2022/12/23 10:35:44;;;;;;;0.20;0.20;;;6.90;99.90;;;;;;5007603;28;20463;-76
2022/12/23 10:38:18;;;;;;;0.20;0.20;;;7.20;99.90;;;;;;5003039;28;20455;-75
2022/12/23 10:41:20;;;;;;;0.20;0.20;;;7.10;99.90;;;;;;5008311;28;20950;-75
2022/12/23 10:44:01;;;;;;;0.20;0.20;;;7.20;99.90;;;;;;5006454;28;20501;-76
2022/12/23 10:47:02;;;;;;;0.20;0.20;;;7.10;99.90;;;;;;5006017;28;20439;-75
2022/12/23 10:49:58;;;;;;;0.20;0.20;;;7.10;99.90;;;;;;5008345;28;20455;-76
2022/12/23 10:52:28;;;;;;;0.20;0.20;;;7.20;99.90;;;;;;5005758;28;20443;-76
2022/12/23 10:54:53;;;;;;;0.20;0.20;;;7.20;99.90;;;;;;5006491;28;20443;-76
2022/12/23 10:57:19;;;;;;;0.20;0.20;;;7.20;99.90;;;;;;5011342;28;20457;-76
2022/12/23 10:59:45;;;;;;;0.20;0.20;;;7.30;99.90;;;;;;5006041;28;20191;-76
2022/12/23 11:02:11;;;;;;;0.20;0.20;;;7.40;99.90;;;;;;5008861;28;20447;-76
2022/12/23 11:04:39;;;;;;;0.20;0.20;;;7.50;99.90;;;;;;5010291;28;20272;-75
2022/12/23 11:07:15;;;;;;;0.20;0.20;;;7.50;99.90;;;;;;5009309;28;20220;-76
2022/12/23 11:09:57;;;;;;;0.20;0.20;;;7.40;99.90;;;;;;5008388;28;20508;-76
2022/12/23 11:12:35;;;;;;;0.20;0.20;;;7.50;99.90;;;;;;5007301;28;20538;-75
2022/12/23 11:15:01;;;;;;;0.20;0.20;;;7.40;99.90;;;;;;5000474;28;20479;-76
2022/12/23 11:17:29;;;;;;;0.20;0.20;;;7.50;99.90;;;;;;5002538;28;20447;-76
2022/12/23 11:20:14;;;;;;;0.20;0.20;;;7.60;99.90;;;;;;5007394;28;20439;-76
2022/12/23 11:23:03;;;;;;;0.20;0.20;;;7.60;99.90;;;;;;5009201;28;20451;-76
2022/12/23 11:25:33;;;;;;;0.20;0.20;;;7.50;99.90;;;;;;5008552;28;20443;-77
2022/12/23 11:28:10;;;;;;;0.20;0.20;;;7.60;99.90;;;;;;5008206;28;20513;-77
2022/12/23 11:30:46;;;;;;;0.20;0.20;;;7.60;99.90;;;;;;5004827;28;20534;-77
2022/12/23 11:33:28;;;;;;;0.20;0.20;;;7.60;99.90;;;;;;5004863;28;20440;-76
2022/12/23 11:36:11;;;;;;;0.20;0.20;;;7.70;99.90;;;;;;4991868;28;20468;-75
2022/12/23 11:39:06;;;;;;;0.20;0.20;;;8.10;99.90;;;;;;5006398;28;20443;-75
2022/12/23 11:41:51;;;;;;;0.20;0.20;;;8.90;99.90;;;;;;5004387;28;20860;-75
2022/12/23 11:44:29;;;;;;;0.20;0.20;;;9.00;99.90;;;;;;5008556;28;20436;-75
2022/12/23 11:46:55;;;;;;;0.17;0.17;;;8.90;99.90;;;;;;4992676;28;20540;-75
2022/12/23 11:49:24;;;;;;;0.20;0.20;;;9.30;99.90;;;;;;5006062;28;20443;-76
2022/12/23 11:52:11;;;;;;;0.10;0.10;;;9.90;99.90;;;;;;5009290;28;20458;-75
2022/12/23 11:54:38;;;;;;;0.20;0.20;;;10.20;99.90;;;;;;5007123;28;20439;-75
2022/12/23 11:57:06;;;;;;;0.10;0.10;;;10.90;99.90;;;;;;5005615;28;20454;-76
2022/12/23 11:59:44;;;;;;;0.10;0.10;;;11.80;99.90;;;;;;5007410;28;20446;-75
2022/12/23 12:02:33;;;;;;;0.20;0.20;;;11.50;99.90;;;;;;5000136;28;20801;-76
2022/12/23 12:05:03;;;;;;;0.10;0.10;;;11.20;99.90;;;;;;5002337;28;21361;-75
2022/12/23 12:07:29;;;;;;;0.10;0.10;;;11.20;99.90;;;;;;5006575;28;20560;-75
2022/12/23 12:09:58;;;;;;;0.20;0.20;;;10.80;99.90;;;;;;5006126;28;20457;-75
2022/12/23 12:12:24;;;;;;;0.10;0.10;;;11.50;99.90;;;;;;5010756;28;20814;-76
2022/12/23 12:14:53;;;;;;;0.10;0.10;;;12.20;99.90;;;;;;5006573;28;20540;-75
2022/12/23 12:17:51;;;;;;;0.10;0.10;;;12.50;99.90;;;;;;5007034;28;20478;-75
2022/12/23 12:20:38;;;;;;;0.10;0.10;;;12.30;99.90;;;;;;4999348;28;20423;-75
2022/12/23 12:23:12;;;;;;;0.10;0.10;;;12.10;99.90;;;;;;5006597;28;20465;-76
2022/12/23 12:25:58;;;;;;;0.10;0.10;;;11.90;99.90;;;;;;5006649;28;20435;-75
2022/12/23 12:28:37;;;;;;;0.10;0.10;;;12.10;99.90;;;;;;5008342;28;20501;-75
2022/12/23 12:31:21;;;;;;;0.10;0.10;;;12.10;99.90;;;;;;5007979;28;20470;-75
2022/12/23 12:33:57;;;;;;;0.20;0.20;;;11.20;99.90;;;;;;5005059;28;20982;-76
2022/12/23 12:36:41;;;;;;;0.30;0.30;;;10.80;99.90;;;;;;5008970;28;20438;-75
2022/12/23 12:39:16;;;;;;;0.20;0.20;;;10.30;99.90;;;;;;5011074;28;20794;-75
2022/12/23 12:41:51;;;;;;;0.20;0.20;;;9.90;99.90;;;;;;5010525;28;20434;-75
2022/12/23 12:44:26;;;;;;;0.20;0.20;;;9.70;99.90;;;;;;5010854;28;20423;-75
2022/12/23 12:47:08;;;;;;;0.30;0.30;;;9.10;99.90;;;;;;5007396;28;20466;-76
2022/12/23 12:49:49;;;;;;;0.20;0.20;;;8.80;99.90;;;;;;5007440;28;20483;-75
2022/12/23 12:52:20;;;;;;;0.20;0.20;;;9.80;99.90;;;;;;5007737;28;20465;-75
2022/12/23 12:55:02;;;;;;;0.20;0.20;;;9.70;99.90;;;;;;5008600;28;20958;-75
2022/12/23 12:57:33;;;;;;;0.30;0.30;;;10.80;99.90;;;;;;5009627;28;20465;-75
2022/12/23 12:59:59;;;;;;;0.10;0.10;;;11.60;99.90;;;;;;5007670;28;20452;-75
2022/12/23 13:02:42;;;;;;;0.10;0.10;;;11.30;99.90;;;;;;5009457;28;20934;-75
2022/12/23 13:05:44;;;;;;;0.10;0.10;;;11.00;99.90;;;;;;5010951;28;20801;-76
2022/12/23 13:08:22;;;;;;;0.10;0.10;;;11.60;99.90;;;;;;5006758;28;20579;-75
2022/12/23 13:11:03;;;;;;;0.10;0.10;;;11.90;99.90;;;;;;5009122;28;20454;-75
2022/12/23 13:13:45;;;;;;;0.10;0.10;;;11.30;99.90;;;;;;5008157;28;20522;-76
2022/12/23 13:16:22;;;;;;;0.10;0.10;;;12.40;99.90;;;;;;5006102;28;20852;-75
2022/12/23 13:19:07;;;;;;;0.10;0.10;;;12.70;99.90;;;;;;5009916;28;20509;-75
2022/12/23 13:21:59;;;;;;;0.10;0.10;;;12.40;99.90;;;;;;5002560;28;20458;-77
2022/12/23 13:24:32;;;;;;;0.10;0.10;;;12.10;99.90;;;;;;5007913;28;20899;-76
2022/12/23 13:27:12;;;;;;;0.10;0.10;;;11.50;99.90;;;;;;5006905;28;20463;-75
2022/12/23 13:29:41;;;;;;;0.10;0.10;;;11.30;99.90;;;;;;5006907;28;20550;-75
2022/12/23 13:32:39;;;;;;;0.10;0.10;;;11.00;99.90;;;;;;5008631;28;20501;-76
2022/12/23 13:35:11;;;;;;;0.10;0.10;;;10.40;99.90;;;;;;5005601;28;20462;-74
2022/12/23 13:37:53;;;;;;;0.10;0.10;;;9.80;99.90;;;;;;5009062;28;20530;-75
2022/12/23 13:40:36;;;;;;;0.10;0.10;;;9.50;99.90;;;;;;5007620;28;20474;-75
2022/12/23 13:43:10;;;;;;;0.10;0.10;;;8.70;99.90;;;;;;5008994;28;20965;-76